Time;durP1;ratioP1;P1;durP2;ratioP2;P2;SDS_P1;SDS_P2;PMS_P1;PMS_P2;Temp;Humidity;BMP_temperature;BMP_pressure;BME280_temperature;BME280_humidity;BME280_pressure;Samples;Min_cycle;Max_cycle;Signal;HPM_P1;HPM_P2
2021/12/19 00:01:58;;;;;;;16.03;7.63;;;8.40;99.90;;;;;;5009221;28;20462;-72
2021/12/19 00:04:33;;;;;;;21.30;9.00;;;8.30;99.90;;;;;;5013421;28;20451;-71
2021/12/19 00:09:44;;;;;;;16.43;7.63;;;8.20;99.90;;;;;;5011968;28;21289;-69
2021/12/19 00:12:11;;;;;;;14.67;6.70;;;8.30;99.90;;;;;;5008959;28;21737;-72
2021/12/19 00:14:38;;;;;;;16.87;8.23;;;8.30;99.90;;;;;;5011853;28;20455;-71
2021/12/19 00:17:06;;;;;;;18.73;8.07;;;8.30;99.90;;;;;;5010394;28;20437;-72
2021/12/19 00:19:34;;;;;;;13.60;5.93;;;8.40;99.90;;;;;;5011133;28;21493;-72
2021/12/19 00:22:01;;;;;;;12.67;6.77;;;8.50;99.90;;;;;;5009486;28;20548;-69
2021/12/19 00:24:29;;;;;;;20.37;10.40;;;8.50;99.90;;;;;;5009141;28;20464;-71
2021/12/19 00:26:56;;;;;;;14.63;8.73;;;8.50;99.90;;;;;;5008164;28;20466;-73
2021/12/19 00:29:23;;;;;;;9.40;5.63;;;8.50;99.90;;;;;;5012877;28;20486;-71
2021/12/19 00:31:50;;;;;;;19.83;7.80;;;8.30;99.90;;;;;;5017603;28;20482;-69
2021/12/19 00:34:17;;;;;;;15.63;8.70;;;8.30;99.90;;;;;;5009487;28;20534;-68
2021/12/19 00:36:46;;;;;;;11.70;5.90;;;8.30;99.90;;;;;;5008039;28;20472;-70
2021/12/19 00:39:13;;;;;;;12.70;7.17;;;8.00;99.90;;;;;;5013144;28;20500;-72
2021/12/19 00:41:40;;;;;;;14.37;7.77;;;7.90;99.90;;;;;;5015078;28;20716;-70
2021/12/19 00:44:10;;;;;;;12.13;7.40;;;8.00;99.90;;;;;;5011044;28;20467;-71
2021/12/19 00:46:46;;;;;;;8.10;4.40;;;7.90;99.90;;;;;;5000320;28;21543;-69
2021/12/19 00:49:13;;;;;;;10.53;5.73;;;7.90;99.90;;;;;;5023800;28;20430;-69
2021/12/19 00:51:41;;;;;;;9.80;5.37;;;7.70;99.90;;;;;;5031526;28;20487;-69
2021/12/19 00:54:09;;;;;;;8.50;4.50;;;7.80;99.90;;;;;;5013537;28;20628;-73
2021/12/19 00:56:42;;;;;;;7.83;4.60;;;7.80;99.90;;;;;;5006957;28;21108;-72
2021/12/19 00:59:10;;;;;;;5.37;3.67;;;7.90;99.90;;;;;;5009605;28;20539;-73
2021/12/19 01:01:38;;;;;;;7.50;3.20;;;8.10;99.90;;;;;;4992411;28;21195;-68
2021/12/19 01:04:06;;;;;;;5.77;3.10;;;8.10;99.90;;;;;;5006299;28;20475;-69
2021/12/19 01:06:33;;;;;;;6.47;2.57;;;8.20;99.90;;;;;;5009526;28;21892;-72
2021/12/19 01:09:00;;;;;;;4.63;3.00;;;8.20;99.90;;;;;;5012901;28;20679;-68
2021/12/19 01:11:28;;;;;;;7.47;3.30;;;8.20;99.90;;;;;;5013099;28;20610;-70
2021/12/19 01:13:56;;;;;;;4.77;2.83;;;8.20;99.90;;;;;;5013595;28;20467;-68
2021/12/19 01:16:23;;;;;;;4.03;2.53;;;8.20;99.90;;;;;;5010914;28;20463;-72
2021/12/19 01:18:50;;;;;;;6.50;3.03;;;8.20;99.90;;;;;;5000852;28;20463;-69
2021/12/19 01:21:18;;;;;;;5.50;3.20;;;8.20;99.90;;;;;;5014718;28;21000;-73
2021/12/19 01:23:45;;;;;;;5.97;2.87;;;8.20;99.90;;;;;;5016649;28;20558;-71
2021/12/19 01:26:12;;;;;;;7.60;4.10;;;8.20;99.90;;;;;;5013970;28;20563;-71
2021/12/19 01:28:42;;;;;;;5.33;3.20;;;8.20;99.90;;;;;;5013631;28;20444;-69
2021/12/19 01:31:10;;;;;;;4.60;4.20;;;8.20;99.90;;;;;;5012670;28;20458;-72
2021/12/19 01:33:37;;;;;;;4.63;3.60;;;8.20;99.90;;;;;;5012682;28;20570;-71
2021/12/19 01:36:04;;;;;;;8.57;3.87;;;8.10;99.90;;;;;;5016671;28;20546;-71
2021/12/19 01:38:31;;;;;;;10.93;4.20;;;8.10;99.90;;;;;;5015937;28;20506;-72
2021/12/19 01:40:59;;;;;;;8.47;5.13;;;8.10;99.90;;;;;;5012264;28;20484;-70
2021/12/19 01:43:26;;;;;;;8.67;4.43;;;8.10;99.90;;;;;;5008392;28;20505;-70
2021/12/19 01:45:55;;;;;;;7.87;4.97;;;8.10;99.90;;;;;;5006105;28;20542;-70
2021/12/19 01:48:23;;;;;;;11.10;5.27;;;8.00;99.90;;;;;;5002280;28;20600;-71
2021/12/19 01:50:51;;;;;;;9.97;5.80;;;8.10;99.90;;;;;;5013382;28;20656;-71
2021/12/19 01:53:18;;;;;;;6.20;4.50;;;8.10;99.90;;;;;;5011634;28;20454;-73
2021/12/19 01:55:47;;;;;;;12.23;6.03;;;7.90;99.90;;;;;;5013275;28;20486;-70
2021/12/19 01:58:16;;;;;;;8.87;4.00;;;8.00;99.90;;;;;;5011412;28;20566;-69
2021/12/19 02:00:45;;;;;;;11.40;5.67;;;8.10;99.90;;;;;;5029133;28;20476;-70
2021/12/19 02:03:15;;;;;;;7.57;4.07;;;8.00;99.90;;;;;;5030667;28;21222;-71
2021/12/19 02:05:42;;;;;;;10.37;5.30;;;8.00;99.90;;;;;;5029441;28;20465;-72
2021/12/19 02:08:11;;;;;;;8.10;4.70;;;7.80;99.90;;;;;;5031298;28;20460;-72
2021/12/19 02:10:39;;;;;;;7.37;3.57;;;7.80;99.90;;;;;;5020239;28;20496;-69
2021/12/19 02:13:08;;;;;;;5.87;4.13;;;7.80;99.90;;;;;;5009134;28;21945;-69
2021/12/19 02:15:35;;;;;;;12.63;5.50;;;7.90;99.90;;;;;;5007923;28;21477;-71
2021/12/19 02:18:06;;;;;;;10.30;5.23;;;8.00;99.90;;;;;;5011195;28;20455;-70
2021/12/19 02:20:36;;;;;;;11.80;5.30;;;7.90;99.90;;;;;;5015150;28;20588;-72
2021/12/19 02:23:03;;;;;;;10.37;5.00;;;8.00;99.90;;;;;;5023312;28;20481;-69
2021/12/19 02:25:31;;;;;;;7.43;5.70;;;8.00;99.90;;;;;;5014785;28;20468;-71
2021/12/19 02:27:58;;;;;;;16.23;5.90;;;7.90;99.90;;;;;;5014692;28;20584;-68
2021/12/19 02:30:25;;;;;;;11.63;3.83;;;7.90;99.90;;;;;;5016853;28;20460;-71
2021/12/19 02:32:52;;;;;;;7.60;4.60;;;7.90;99.90;;;;;;5021235;28;20463;-73
2021/12/19 02:35:23;;;;;;;11.67;4.07;;;7.90;99.90;;;;;;5010018;28;20458;-70
2021/12/19 02:49:07;;;;;;;3.83;2.50;;;7.40;99.90;;;;;;5011647;28;20438;-68
2021/12/19 02:51:35;;;;;;;3.77;2.00;;;7.20;99.90;;;;;;5011490;28;20515;-71
2021/12/19 02:54:05;;;;;;;5.97;3.40;;;7.20;99.90;;;;;;5004254;28;20468;-71
2021/12/19 02:56:32;;;;;;;8.13;2.33;;;7.00;99.90;;;;;;5008617;28;20571;-69
2021/12/19 02:58:59;;;;;;;10.03;4.10;;;7.00;99.90;;;;;;5019285;28;20470;-71
2021/12/19 03:01:27;;;;;;;2.43;2.00;;;7.10;99.90;;;;;;5014720;28;20562;-68
2021/12/19 03:03:54;;;;;;;5.27;2.40;;;7.10;99.90;;;;;;5015471;28;20592;-72
2021/12/19 03:06:21;;;;;;;3.57;2.73;;;7.10;99.90;;;;;;5010438;28;20463;-69
2021/12/19 03:08:51;;;;;;;4.80;2.50;;;7.10;99.90;;;;;;5015665;28;21425;-68
2021/12/19 03:19:37;;;;;;;2.57;1.07;;;7.00;99.90;;;;;;5014377;28;20422;-69
2021/12/19 03:22:04;;;;;;;1.20;0.87;;;7.00;99.90;;;;;;5006053;28;20658;-70
2021/12/19 03:24:31;;;;;;;2.03;1.20;;;7.00;99.90;;;;;;5006531;28;21401;-70
2021/12/19 03:26:59;;;;;;;1.83;1.73;;;7.00;99.90;;;;;;5008506;28;21524;-70
2021/12/19 03:29:27;;;;;;;1.37;1.00;;;7.00;99.90;;;;;;5015401;28;20430;-71
2021/12/19 03:31:54;;;;;;;3.93;1.47;;;7.00;99.90;;;;;;5012905;28;20982;-69
2021/12/19 03:34:21;;;;;;;3.30;1.70;;;7.10;99.90;;;;;;5014145;28;20546;-70
2021/12/19 03:36:48;;;;;;;3.07;1.60;;;7.10;99.90;;;;;;5005853;28;22589;-68
2021/12/19 03:39:26;;;;;;;4.67;1.77;;;7.00;99.90;;;;;;5007424;28;20433;-72
2021/12/19 03:41:55;;;;;;;1.67;1.00;;;6.90;99.90;;;;;;5013931;28;20705;-70
2021/12/19 03:44:24;;;;;;;6.20;2.03;;;6.90;99.90;;;;;;5013570;28;20657;-70
2021/12/19 03:46:51;;;;;;;2.37;1.63;;;7.00;99.90;;;;;;5016723;28;20490;-72
2021/12/19 03:49:19;;;;;;;3.57;1.60;;;7.00;99.90;;;;;;5010668;28;20606;-72
2021/12/19 03:51:48;;;;;;;2.70;1.87;;;7.20;99.90;;;;;;5015435;28;20483;-69
2021/12/19 03:54:15;;;;;;;3.80;1.27;;;7.10;99.90;;;;;;5008025;28;20455;-70
2021/12/19 03:56:42;;;;;;;2.50;1.37;;;7.10;99.90;;;;;;5009282;28;20491;-69
2021/12/19 03:59:09;;;;;;;2.60;1.40;;;7.10;99.90;;;;;;5012900;28;20463;-71
2021/12/19 04:01:39;;;;;;;2.13;1.30;;;7.10;99.90;;;;;;5008706;28;20490;-72
2021/12/19 04:04:06;;;;;;;2.90;1.73;;;7.20;99.90;;;;;;5029766;28;20458;-69
2021/12/19 04:06:33;;;;;;;2.90;1.63;;;7.30;99.90;;;;;;5029752;28;20518;-71
2021/12/19 04:09:00;;;;;;;1.63;1.17;;;7.30;99.90;;;;;;5036286;28;20468;-70
2021/12/19 04:11:27;;;;;;;3.00;1.60;;;7.30;99.90;;;;;;5015331;28;20490;-70
2021/12/19 04:13:54;;;;;;;2.73;1.60;;;7.10;99.90;;;;;;5026907;28;20455;-69
2021/12/19 04:16:21;;;;;;;3.40;1.90;;;7.00;99.90;;;;;;5024813;28;20548;-68
2021/12/19 04:18:50;;;;;;;4.87;2.17;;;7.00;99.90;;;;;;5030790;28;20755;-69
2021/12/19 04:21:17;;;;;;;1.57;0.90;;;6.90;99.90;;;;;;5022851;28;20478;-72
2021/12/19 04:23:44;;;;;;;3.53;1.00;;;7.10;99.90;;;;;;5031214;28;20478;-70
2021/12/19 04:26:11;;;;;;;1.87;1.60;;;7.00;99.90;;;;;;5023447;28;20571;-72
2021/12/19 04:28:38;;;;;;;2.63;1.60;;;7.10;99.90;;;;;;5022932;28;20558;-70
2021/12/19 04:31:05;;;;;;;5.60;2.20;;;7.30;99.90;;;;;;5032403;28;20583;-70
2021/12/19 04:33:34;;;;;;;4.43;1.90;;;7.40;99.90;;;;;;5023238;28;21474;-71
2021/12/19 04:36:05;;;;;;;3.70;1.77;;;7.40;99.90;;;;;;5023759;28;20853;-69
2021/12/19 04:39:17;;;;;;;3.67;2.43;;;7.30;99.90;;;;;;5025357;28;20450;-72
2021/12/19 04:53:12;;;;;;;4.40;1.80;;;7.20;99.90;;;;;;5010807;28;20450;-69
2021/12/19 04:59:09;;;;;;;4.03;1.93;;;7.10;99.90;;;;;;5010349;28;20452;-69
2021/12/19 05:05:07;;;;;;;5.67;2.63;;;7.10;99.90;;;;;;5053658;27;20657;-72
2021/12/19 05:15:49;;;;;;;3.90;2.10;;;7.30;99.90;;;;;;5027619;28;20491;-71
2021/12/19 05:18:16;;;;;;;4.63;3.40;;;7.30;99.90;;;;;;5028244;28;20527;-72
2021/12/19 05:20:53;;;;;;;10.63;5.30;;;7.40;99.90;;;;;;5027748;28;20479;-67
2021/12/19 05:23:26;;;;;;;2.53;2.30;;;7.20;99.90;;;;;;5026835;28;20486;-71
2021/12/19 05:25:53;;;;;;;4.07;1.50;;;7.10;99.90;;;;;;5027705;28;20548;-71
2021/12/19 05:28:20;;;;;;;2.00;1.33;;;6.90;99.90;;;;;;5038050;28;20504;-69
2021/12/19 05:30:47;;;;;;;6.43;1.90;;;6.90;99.90;;;;;;5028440;28;20535;-70
2021/12/19 05:33:15;;;;;;;2.83;1.20;;;6.90;99.90;;;;;;5024572;28;23844;-70
2021/12/19 05:36:02;;;;;;;1.67;1.30;;;6.90;99.90;;;;;;5031585;28;21454;-70
2021/12/19 05:44:15;;;;;;;2.60;2.40;;;7.00;99.90;;;;;;5030475;28;20532;-68
2021/12/19 05:46:43;;;;;;;3.83;2.73;;;6.90;99.90;;;;;;5028744;28;20517;-71
2021/12/19 05:49:10;;;;;;;2.30;1.57;;;7.00;99.90;;;;;;5027477;28;20462;-71
2021/12/19 05:51:39;;;;;;;4.97;1.87;;;7.00;99.90;;;;;;5046140;28;21023;-72
2021/12/19 05:54:09;;;;;;;2.03;1.83;;;7.00;99.90;;;;;;5029362;28;20446;-72
2021/12/19 05:56:37;;;;;;;4.37;1.60;;;7.00;99.90;;;;;;5039476;28;20620;-70
2021/12/19 05:59:04;;;;;;;1.83;1.27;;;7.00;99.90;;;;;;5030382;28;20463;-71
2021/12/19 06:01:31;;;;;;;1.47;1.37;;;7.10;99.90;;;;;;5027821;28;20871;-71
2021/12/19 06:03:58;;;;;;;6.30;1.97;;;7.10;99.90;;;;;;5030113;28;20482;-69
2021/12/19 06:06:26;;;;;;;2.67;1.73;;;7.00;99.90;;;;;;5024737;28;20445;-72
2021/12/19 06:08:53;;;;;;;6.93;2.23;;;7.10;99.90;;;;;;5033237;28;20612;-69
2021/12/19 06:11:22;;;;;;;1.87;1.50;;;7.10;99.90;;;;;;5023502;28;21007;-71
2021/12/19 06:13:49;;;;;;;3.20;1.80;;;7.20;99.90;;;;;;5031793;28;21425;-70
2021/12/19 06:16:16;;;;;;;6.20;2.03;;;7.20;99.90;;;;;;5014498;28;20455;-74
2021/12/19 06:18:43;;;;;;;6.77;1.90;;;7.30;99.90;;;;;;5020897;28;20440;-73
2021/12/19 06:21:10;;;;;;;2.93;2.30;;;7.40;99.90;;;;;;5011665;28;20457;-71
2021/12/19 06:23:39;;;;;;;2.40;1.47;;;7.30;99.90;;;;;;5020496;28;20482;-71
2021/12/19 06:26:10;;;;;;;3.73;2.13;;;7.30;99.90;;;;;;5031687;28;20956;-71
2021/12/19 06:28:39;;;;;;;4.90;3.23;;;7.20;99.90;;;;;;5016969;28;20668;-70
2021/12/19 06:31:06;;;;;;;5.53;2.33;;;7.10;99.90;;;;;;5021150;28;20483;-69
2021/12/19 06:33:33;;;;;;;4.80;2.30;;;7.10;99.90;;;;;;5020845;28;20594;-70
2021/12/19 06:36:00;;;;;;;3.47;1.93;;;7.00;99.90;;;;;;5001533;28;20708;-71
2021/12/19 06:38:27;;;;;;;2.83;1.53;;;7.20;99.90;;;;;;5008514;28;20866;-72
2021/12/19 06:40:54;;;;;;;3.73;2.17;;;7.00;99.90;;;;;;5006848;28;21106;-72
2021/12/19 06:43:21;;;;;;;2.27;1.33;;;7.00;99.90;;;;;;5009545;28;20585;-72
2021/12/19 06:45:50;;;;;;;7.03;2.10;;;7.10;99.90;;;;;;5003580;28;20960;-70
2021/12/19 06:48:18;;;;;;;3.07;2.30;;;7.10;99.90;;;;;;5011127;28;20504;-71
2021/12/19 06:50:45;;;;;;;2.53;1.60;;;7.20;99.90;;;;;;5017869;28;20511;-71
2021/12/19 06:53:12;;;;;;;3.77;2.30;;;7.20;99.90;;;;;;5020360;28;20556;-70
2021/12/19 06:55:39;;;;;;;1.83;1.33;;;7.20;99.90;;;;;;5015873;28;20505;-70
2021/12/19 06:58:06;;;;;;;3.77;2.70;;;7.20;99.90;;;;;;5020938;28;20493;-69
2021/12/19 07:00:33;;;;;;;7.50;2.13;;;7.20;99.90;;;;;;5021280;28;20962;-69
2021/12/19 07:03:01;;;;;;;3.30;2.30;;;7.20;99.90;;;;;;5011310;28;21526;-73
2021/12/19 07:05:29;;;;;;;4.73;2.80;;;7.10;99.90;;;;;;5022848;28;20457;-72
2021/12/19 07:07:55;;;;;;;3.40;2.10;;;7.10;99.90;;;;;;5023506;28;21722;-69
2021/12/19 07:10:23;;;;;;;3.23;1.70;;;7.10;99.90;;;;;;5017626;28;21184;-71
2021/12/19 07:12:50;;;;;;;2.60;1.73;;;7.20;99.90;;;;;;5021471;28;20460;-70
2021/12/19 07:15:18;;;;;;;4.37;2.00;;;7.30;99.90;;;;;;5008454;28;22791;-69
2021/12/19 07:17:46;;;;;;;1.70;1.57;;;7.20;99.90;;;;;;5013527;28;20972;-71
2021/12/19 07:20:14;;;;;;;2.23;1.53;;;7.10;99.90;;;;;;5021107;28;20464;-71
2021/12/19 07:22:42;;;;;;;3.43;2.20;;;7.20;99.90;;;;;;5014886;28;20456;-72
2021/12/19 07:25:09;;;;;;;2.20;1.37;;;7.20;99.90;;;;;;5007798;28;21091;-71
2021/12/19 07:27:36;;;;;;;2.40;1.33;;;7.20;99.90;;;;;;5008491;28;20573;-72
2021/12/19 07:30:04;;;;;;;5.37;2.17;;;7.20;99.90;;;;;;5019139;28;20549;-72
2021/12/19 07:32:32;;;;;;;2.30;1.30;;;7.30;99.90;;;;;;5012419;28;20490;-72
2021/12/19 07:34:59;;;;;;;1.40;1.00;;;7.30;99.90;;;;;;5011378;28;20438;-71
2021/12/19 07:37:27;;;;;;;2.43;1.80;;;7.20;99.90;;;;;;5013637;28;20451;-72
2021/12/19 07:39:59;;;;;;;2.10;1.30;;;7.30;99.90;;;;;;5023715;28;20456;-72
2021/12/19 07:42:26;;;;;;;3.90;1.70;;;7.20;99.90;;;;;;5020077;28;21144;-71
2021/12/19 07:44:53;;;;;;;1.87;1.37;;;7.20;99.90;;;;;;5016377;28;20578;-72
2021/12/19 07:47:20;;;;;;;5.20;2.20;;;7.20;99.90;;;;;;5024534;28;20460;-70
2021/12/19 07:49:47;;;;;;;1.77;1.27;;;7.20;99.90;;;;;;5017050;28;20457;-70
2021/12/19 07:52:14;;;;;;;3.17;1.90;;;7.30;99.90;;;;;;5014696;28;20511;-70
2021/12/19 07:54:42;;;;;;;3.73;1.07;;;7.20;99.90;;;;;;5017955;28;20443;-71
2021/12/19 07:57:09;;;;;;;1.70;1.50;;;7.20;99.90;;;;;;5043193;28;20486;-70
2021/12/19 07:59:36;;;;;;;2.07;1.87;;;7.20;99.90;;;;;;5041281;28;20592;-71
2021/12/19 08:02:04;;;;;;;1.97;1.33;;;7.20;99.90;;;;;;5034692;28;20476;-70
2021/12/19 08:04:31;;;;;;;2.43;1.37;;;7.20;99.90;;;;;;5027759;28;20449;-73
2021/12/19 08:06:58;;;;;;;3.20;1.73;;;7.30;99.90;;;;;;5038611;28;20567;-72
2021/12/19 08:09:36;;;;;;;1.53;1.40;;;7.30;99.90;;;;;;5039088;28;20459;-70
2021/12/19 08:12:05;;;;;;;3.47;2.63;;;7.40;99.90;;;;;;5003997;28;20480;-72
2021/12/19 08:14:32;;;;;;;1.80;1.43;;;7.30;99.90;;;;;;5017170;28;21207;-72
2021/12/19 08:17:00;;;;;;;3.07;1.77;;;7.20;99.90;;;;;;5006846;28;20463;-72
2021/12/19 08:19:27;;;;;;;2.00;1.80;;;7.30;99.90;;;;;;5018993;28;20467;-72
2021/12/19 08:21:54;;;;;;;2.17;1.97;;;7.50;99.90;;;;;;5007728;28;20480;-73
2021/12/19 08:24:22;;;;;;;4.03;1.97;;;7.50;99.90;;;;;;5004533;28;20491;-72
2021/12/19 08:26:49;;;;;;;3.30;1.90;;;7.40;99.90;;;;;;4995377;28;20463;-72
2021/12/19 08:29:18;;;;;;;4.10;1.80;;;7.40;99.90;;;;;;5011861;28;21490;-70
2021/12/19 08:31:45;;;;;;;3.03;1.87;;;7.50;99.90;;;;;;5013721;28;20831;-71
2021/12/19 08:34:12;;;;;;;4.73;2.20;;;7.60;99.90;;;;;;5018270;28;20587;-72
2021/12/19 08:36:39;;;;;;;2.53;1.93;;;7.60;99.90;;;;;;5003283;28;21576;-69
2021/12/19 08:39:08;;;;;;;5.83;2.97;;;7.70;99.90;;;;;;5021687;28;20544;-72
2021/12/19 08:41:35;;;;;;;4.30;2.40;;;7.60;99.90;;;;;;5014323;28;20986;-69
2021/12/19 08:44:02;;;;;;;3.17;2.80;;;7.50;99.90;;;;;;5003088;28;20490;-72
2021/12/19 08:46:32;;;;;;;5.60;3.47;;;7.60;99.90;;;;;;4991096;28;21282;-71
2021/12/19 08:48:59;;;;;;;4.53;2.63;;;7.70;99.90;;;;;;5014524;28;20492;-71
2021/12/19 08:51:27;;;;;;;3.17;2.63;;;7.80;99.90;;;;;;4994675;28;20834;-73
2021/12/19 08:53:54;;;;;;;7.33;3.93;;;7.90;99.90;;;;;;5003370;28;20491;-73
2021/12/19 08:56:21;;;;;;;6.00;3.37;;;8.00;99.90;;;;;;4996219;28;20538;-72
2021/12/19 08:58:48;;;;;;;7.23;4.30;;;8.00;99.90;;;;;;5008740;28;21917;-70
2021/12/19 09:01:15;;;;;;;2.97;2.20;;;8.00;99.90;;;;;;5000377;28;20478;-73
2021/12/19 09:03:44;;;;;;;5.90;2.90;;;8.00;99.90;;;;;;5013018;28;20491;-71
2021/12/19 09:06:11;;;;;;;3.63;1.90;;;8.10;99.90;;;;;;4999081;28;20433;-72
2021/12/19 09:08:38;;;;;;;5.60;1.60;;;8.00;99.90;;;;;;5005951;28;20467;-72
2021/12/19 09:11:05;;;;;;;5.43;2.73;;;7.90;99.90;;;;;;5010343;28;20526;-71
2021/12/19 09:13:33;;;;;;;2.90;2.00;;;7.90;99.90;;;;;;5009906;28;20460;-73
2021/12/19 09:16:01;;;;;;;4.20;2.67;;;7.80;99.90;;;;;;5007617;28;20851;-71
2021/12/19 09:18:28;;;;;;;7.37;3.63;;;7.70;99.90;;;;;;5031757;28;20482;-70
2021/12/19 09:20:57;;;;;;;4.03;2.60;;;7.80;99.90;;;;;;5004894;28;20536;-71
2021/12/19 09:23:24;;;;;;;5.53;2.93;;;7.80;99.90;;;;;;5008491;28;20447;-67
2021/12/19 09:25:52;;;;;;;2.47;1.63;;;7.80;99.90;;;;;;4996502;28;20434;-73
2021/12/19 09:28:19;;;;;;;6.20;4.00;;;7.80;99.90;;;;;;5016639;28;20576;-72
2021/12/19 09:30:47;;;;;;;2.90;1.67;;;7.70;99.90;;;;;;5015566;28;20476;-71
2021/12/19 09:33:14;;;;;;;2.50;1.40;;;7.70;99.90;;;;;;5012463;28;21215;-70
2021/12/19 09:35:41;;;;;;;2.70;1.43;;;7.70;99.90;;;;;;5008688;28;20462;-70
2021/12/19 09:38:10;;;;;;;3.27;1.60;;;7.70;99.90;;;;;;5010664;28;20441;-71
2021/12/19 09:40:39;;;;;;;4.50;2.33;;;7.70;99.90;;;;;;5017151;28;21086;-71
2021/12/19 09:43:10;;;;;;;2.40;1.40;;;7.80;99.90;;;;;;5010926;28;20455;-69
2021/12/19 09:45:38;;;;;;;2.83;1.80;;;7.90;99.90;;;;;;5013861;28;20510;-71
2021/12/19 09:48:06;;;;;;;3.13;2.80;;;7.90;99.90;;;;;;5004233;28;20487;-69
2021/12/19 09:50:33;;;;;;;2.40;1.87;;;7.90;99.90;;;;;;5006413;28;21284;-68
2021/12/19 09:53:00;;;;;;;2.17;1.90;;;7.90;99.90;;;;;;5010977;28;20452;-70
2021/12/19 09:55:29;;;;;;;2.40;1.20;;;8.10;99.90;;;;;;5012340;28;20459;-72
2021/12/19 09:57:57;;;;;;;1.90;1.37;;;8.00;99.90;;;;;;5018181;28;20824;-70
2021/12/19 10:00:24;;;;;;;4.97;2.37;;;7.80;99.90;;;;;;5002687;28;20486;-73
2021/12/19 10:02:51;;;;;;;3.10;2.13;;;7.80;99.90;;;;;;4993356;28;20473;-72
2021/12/19 10:05:21;;;;;;;1.93;1.37;;;7.70;99.90;;;;;;5009729;28;20474;-72
2021/12/19 10:07:52;;;;;;;2.43;2.17;;;7.70;99.90;;;;;;5014426;28;20990;-74
2021/12/19 10:10:27;;;;;;;2.27;1.50;;;7.60;99.90;;;;;;4999810;28;20509;-71
2021/12/19 10:12:58;;;;;;;2.70;1.60;;;7.60;99.90;;;;;;5012858;28;20573;-71
2021/12/19 10:15:33;;;;;;;3.10;1.40;;;7.70;99.90;;;;;;5017129;28;20459;-72
2021/12/19 10:18:08;;;;;;;1.87;1.40;;;7.90;99.90;;;;;;5002665;28;23530;-71
2021/12/19 10:20:47;;;;;;;2.43;2.17;;;7.90;99.90;;;;;;4986576;28;20612;-72
2021/12/19 10:23:16;;;;;;;2.53;1.63;;;7.70;99.90;;;;;;5005261;28;20507;-70
2021/12/19 10:25:44;;;;;;;3.03;1.93;;;7.70;99.90;;;;;;4998194;28;21232;-70
2021/12/19 10:28:13;;;;;;;1.83;1.33;;;7.80;99.90;;;;;;4982306;28;20506;-70
2021/12/19 10:30:46;;;;;;;2.90;2.50;;;7.70;99.90;;;;;;5017509;28;20601;-68
2021/12/19 10:33:15;;;;;;;4.93;1.70;;;7.80;99.90;;;;;;5007895;28;20434;-72
2021/12/19 10:35:46;;;;;;;3.27;2.17;;;7.80;99.90;;;;;;5006489;28;20821;-72
2021/12/19 10:38:16;;;;;;;2.60;1.60;;;8.00;99.90;;;;;;5013385;28;20603;-70
2021/12/19 10:40:48;;;;;;;4.17;1.40;;;8.10;99.90;;;;;;5010852;28;20832;-71
2021/12/19 10:43:19;;;;;;;6.37;2.20;;;8.10;99.90;;;;;;5016547;28;20439;-72
2021/12/19 10:45:49;;;;;;;1.30;1.10;;;8.00;99.90;;;;;;5019382;28;20476;-71
2021/12/19 10:48:23;;;;;;;2.70;2.10;;;7.90;99.90;;;;;;5004945;28;20566;-70
2021/12/19 10:50:54;;;;;;;2.23;1.50;;;7.90;99.90;;;;;;4999762;28;20471;-72
2021/12/19 10:53:26;;;;;;;1.60;1.00;;;8.10;99.90;;;;;;5014368;28;20783;-71
2021/12/19 10:55:54;;;;;;;1.90;1.20;;;8.00;99.90;;;;;;5000795;28;20452;-72
2021/12/19 10:58:35;;;;;;;1.90;1.50;;;7.90;99.90;;;;;;5003009;28;20498;-69
2021/12/19 11:01:12;;;;;;;1.63;1.40;;;7.90;99.90;;;;;;5009761;28;20480;-67
2021/12/19 11:03:46;;;;;;;1.80;1.40;;;7.90;99.90;;;;;;4999447;28;20989;-67
2021/12/19 11:06:35;;;;;;;2.43;1.67;;;8.00;99.90;;;;;;5004249;28;20484;-68
2021/12/19 11:09:10;;;;;;;1.50;1.20;;;7.90;99.90;;;;;;4999141;28;20924;-67
2021/12/19 11:11:47;;;;;;;2.87;1.43;;;8.00;99.90;;;;;;4998639;28;20485;-68
2021/12/19 11:14:17;;;;;;;1.50;1.10;;;7.90;99.90;;;;;;5012405;28;20629;-68
2021/12/19 11:16:45;;;;;;;1.97;1.07;;;7.90;99.90;;;;;;5004224;28;20479;-69
2021/12/19 11:19:13;;;;;;;1.00;0.80;;;8.10;99.90;;;;;;5003498;28;20593;-67
2021/12/19 11:21:41;;;;;;;1.30;1.03;;;8.00;99.90;;;;;;5012019;28;20490;-68
2021/12/19 11:24:11;;;;;;;1.30;0.97;;;8.00;99.90;;;;;;5001803;28;20475;-69
2021/12/19 11:26:41;;;;;;;3.40;1.50;;;7.80;99.90;;;;;;5001573;28;20471;-69
2021/12/19 11:29:10;;;;;;;1.90;0.93;;;7.80;99.90;;;;;;4994636;28;20464;-68
2021/12/19 11:31:41;;;;;;;1.63;1.30;;;7.80;99.90;;;;;;5005454;28;20506;-70
2021/12/19 11:34:24;;;;;;;2.50;1.10;;;7.80;99.90;;;;;;5009806;28;20454;-69
2021/12/19 11:36:58;;;;;;;1.10;1.00;;;7.80;99.90;;;;;;4984849;28;20459;-69
2021/12/19 11:39:31;;;;;;;1.13;1.00;;;7.90;99.90;;;;;;5005669;28;20912;-68
2021/12/19 11:42:05;;;;;;;1.90;1.20;;;8.00;99.90;;;;;;4995361;28;20556;-68
2021/12/19 11:44:36;;;;;;;1.67;1.30;;;8.00;99.90;;;;;;5001429;28;20479;-68
2021/12/19 11:47:10;;;;;;;4.70;2.70;;;8.00;99.90;;;;;;4983183;28;21003;-67
2021/12/19 11:49:37;;;;;;;1.50;1.30;;;8.00;99.90;;;;;;5009274;28;20467;-67
2021/12/19 11:52:25;;;;;;;3.43;2.83;;;8.00;99.90;;;;;;5013612;28;20495;-68
2021/12/19 11:55:35;;;;;;;6.67;3.10;;;8.00;99.90;;;;;;4983181;28;21255;-67
2021/12/19 11:58:24;;;;;;;1.10;1.00;;;8.00;99.90;;;;;;5001344;28;22137;-67
2021/12/19 12:00:55;;;;;;;1.73;0.90;;;8.10;99.90;;;;;;4990077;28;20486;-68
2021/12/19 12:03:28;;;;;;;2.10;1.10;;;8.00;99.90;;;;;;5011610;28;20489;-68
2021/12/19 12:06:26;;;;;;;1.33;1.00;;;8.10;99.90;;;;;;4973921;28;20700;-69
2021/12/19 12:09:25;;;;;;;2.67;1.00;;;8.00;99.90;;;;;;5002908;28;20475;-67
2021/12/19 12:12:19;;;;;;;1.10;0.80;;;8.20;99.90;;;;;;5008479;28;20474;-69
2021/12/19 12:15:09;;;;;;;1.27;1.17;;;7.90;99.90;;;;;;5004780;28;20438;-69
2021/12/19 12:17:49;;;;;;;2.97;1.73;;;8.00;99.90;;;;;;4984626;28;20699;-69
2021/12/19 12:20:21;;;;;;;1.30;1.17;;;8.00;99.90;;;;;;4988518;28;20518;-67
2021/12/19 12:22:55;;;;;;;2.90;2.17;;;8.00;99.90;;;;;;4997431;28;20585;-68
2021/12/19 12:25:32;;;;;;;1.60;1.33;;;7.90;99.90;;;;;;4977649;28;20559;-68
2021/12/19 12:28:04;;;;;;;1.60;1.10;;;8.00;99.90;;;;;;4990977;28;20521;-68
2021/12/19 12:30:34;;;;;;;2.07;1.47;;;8.10;99.90;;;;;;4988741;28;20559;-68
2021/12/19 12:33:02;;;;;;;1.70;1.43;;;8.10;99.90;;;;;;5008066;28;20554;-68
2021/12/19 12:35:32;;;;;;;2.70;1.50;;;8.10;99.90;;;;;;4998100;28;22513;-68
2021/12/19 12:38:01;;;;;;;1.70;1.50;;;8.20;99.90;;;;;;4997781;28;20455;-68
2021/12/19 12:40:32;;;;;;;5.57;3.00;;;8.30;99.90;;;;;;4983378;28;20471;-67
2021/12/19 12:43:08;;;;;;;2.67;1.80;;;8.20;99.90;;;;;;5001228;28;20479;-68
2021/12/19 12:45:57;;;;;;;1.70;1.60;;;8.10;99.90;;;;;;5003069;28;20446;-69
2021/12/19 12:48:39;;;;;;;3.37;1.73;;;8.10;99.90;;;;;;4996497;28;20463;-68
2021/12/19 12:51:10;;;;;;;2.23;2.00;;;7.90;99.90;;;;;;5000552;28;20867;-68
2021/12/19 12:53:41;;;;;;;2.60;1.30;;;7.90;99.90;;;;;;5000503;28;22528;-69
2021/12/19 12:56:12;;;;;;;2.70;2.20;;;7.90;99.90;;;;;;4992105;28;20460;-68
2021/12/19 12:58:42;;;;;;;5.20;4.80;;;8.00;99.90;;;;;;5003435;28;20452;-68
2021/12/19 13:01:27;;;;;;;4.37;2.60;;;7.90;99.90;;;;;;4984338;28;22855;-68
2021/12/19 13:04:05;;;;;;;2.60;2.00;;;7.90;99.90;;;;;;4988214;28;20577;-67
2021/12/19 13:06:42;;;;;;;3.07;2.37;;;7.80;99.90;;;;;;4996507;28;20495;-67
2021/12/19 13:09:19;;;;;;;4.43;2.67;;;7.70;99.90;;;;;;5005494;28;20552;-68
2021/12/19 13:11:48;;;;;;;2.67;1.80;;;7.70;99.90;;;;;;5003594;28;20510;-68
2021/12/19 13:14:20;;;;;;;2.37;1.53;;;7.70;99.90;;;;;;5006042;28;20484;-67
2021/12/19 13:16:49;;;;;;;2.57;1.80;;;7.70;99.90;;;;;;5006390;28;20740;-67
2021/12/19 13:19:47;;;;;;;3.77;3.27;;;7.70;99.90;;;;;;5000445;28;21748;-68
2021/12/19 13:22:18;;;;;;;2.80;1.50;;;7.70;99.90;;;;;;5004442;28;20479;-68
2021/12/19 13:24:47;;;;;;;2.53;1.23;;;7.70;99.90;;;;;;5014261;28;20431;-68
2021/12/19 13:27:17;;;;;;;3.37;2.57;;;7.70;99.90;;;;;;5012395;28;20452;-68
2021/12/19 13:30:01;;;;;;;1.80;1.50;;;7.80;99.90;;;;;;5013024;28;20434;-68
2021/12/19 13:32:34;;;;;;;3.17;2.10;;;7.90;99.90;;;;;;4996642;28;20513;-68
2021/12/19 13:35:03;;;;;;;5.30;2.60;;;8.00;99.90;;;;;;4990052;28;20464;-68
2021/12/19 13:37:33;;;;;;;6.90;4.50;;;8.00;99.90;;;;;;4999029;28;21321;-68
2021/12/19 13:40:13;;;;;;;2.40;1.50;;;8.00;99.90;;;;;;4990306;28;20502;-68
2021/12/19 13:42:47;;;;;;;3.50;1.63;;;8.00;99.90;;;;;;4998613;28;21738;-71
2021/12/19 13:45:31;;;;;;;1.70;1.37;;;7.90;99.90;;;;;;4998357;28;20486;-70
2021/12/19 13:48:01;;;;;;;2.37;1.60;;;8.00;99.90;;;;;;4998207;28;21235;-70
2021/12/19 13:50:30;;;;;;;2.90;2.03;;;8.10;99.90;;;;;;5002243;28;20463;-69
2021/12/19 13:52:59;;;;;;;3.70;1.90;;;8.10;99.90;;;;;;4995246;28;20458;-70
2021/12/19 13:55:27;;;;;;;1.73;1.63;;;8.10;99.90;;;;;;4996795;28;21806;-69
2021/12/19 13:58:12;;;;;;;6.60;2.60;;;8.00;99.90;;;;;;4998444;28;21086;-70
2021/12/19 14:00:43;;;;;;;3.70;2.30;;;8.00;99.90;;;;;;5006222;28;20461;-70
2021/12/19 14:03:10;;;;;;;7.07;2.67;;;7.90;99.90;;;;;;5006156;28;20469;-71
2021/12/19 14:05:43;;;;;;;2.47;1.87;;;8.00;99.90;;;;;;5011107;28;20514;-70